Hlavní strana
METAR-TAF:

METAR-TAF

Letiště :

Tanger, Maroko

zeměpisná šířka: 35-44N, zeměpisná délka: 005-54W, výška: 19 m

Aktuální stav počasí

Zpráva byla vytvořena před 36 minutami, v 06:00 UTC
Východní vítr 18 kt
Teplota 20°C
Vlhkost vzduchu 73%
Tlak 1011 hPa
Viditelnost 10 km a více
Žádná oblačnost pod 1500 m, nevyskytují se cumulonimby.

METAR: GMTT 300600Z 08018KT CAVOK 20/15 Q1011 NOSIG

Čas: 07:36 (06:36 UTC)

Předpověď počasí

Zpráva byla vytvořena před 1 hodinou a 36 minutami, v 05:00 UTC
Předpověď platná od 30 v 06 UTC do 31 v 12 UTC
Východní vítr 19 kt
Viditelnost 10 km a více
Žádná oblačnost pod 1500 m, nevyskytují se cumulonimby.
Dočasný
od 30 v 06 UTC do 31 v 06 UTC
Východní vítr 22 kt s nárazy do 36 kt
Pravděpodobnost 30%
od 31 v 06 UTC do 31 v 12 UTC
Viditelnost: 3000 m
Oblačno až skoro zataženo ve výšce 1000 ft
déšť

TAF: GMTT 300500Z 3006/3112 08019KT CAVOK TEMPO 3006/3106 08022G36KT PROB30 3106/3112 3000 RA BKN010

Stav a předpovědi počasí z více než 4 000 letišť (zprávy METAR a TAF).

Červené a žluté tečky na mapě představují dostupné meteorologické stanice.

Když kurzor umístíte na tečku, zobrazí se název stanice.

Pak kliknutím zobrazíte stav a předpověď počasí.

Chcete-li změnit mapu, kliknutím na zelené tlačítko se znaménkem +mapu přiblížíte, kliknutím na zelené tlačítko se znaménkem – mapu oddálíte a kliknutím na zelené šipky přejdete na sousední mapy.


METAR-TAF: